Time;durP1;ratioP1;P1;durP2;ratioP2;P2;SDS_P1;SDS_P2;PMS_P1;PMS_P2;Temp;Humidity;BMP_temperature;BMP_pressure;BME280_temperature;BME280_humidity;BME280_pressure;Samples;Min_cycle;Max_cycle;Signal;HPM_P1;HPM_P2
2021/10/20 00:00:08;;;;;;;21.95;20.83;;;;;;;;;;4988799;28;20494;-48
2021/10/20 00:02:35;;;;;;;23.38;22.10;;;;;;;;;;4985469;28;20050;-50
2021/10/20 00:05:02;;;;;;;21.95;20.85;;;;;;;;;;4993025;28;20495;-48
2021/10/20 00:07:29;;;;;;;24.17;22.58;;;;;;;;;;4990464;28;20046;-52
2021/10/20 00:09:55;;;;;;;25.90;24.50;;;;;;;;;;4975336;28;20047;-47
2021/10/20 00:12:22;;;;;;;26.13;24.42;;;;;;;;;;4988662;28;20129;-47
2021/10/20 00:14:49;;;;;;;22.70;21.27;;;;;;;;;;4990939;28;20041;-48
2021/10/20 00:17:16;;;;;;;23.77;22.45;;;;;;;;;;4992132;28;20047;-50
2021/10/20 00:19:43;;;;;;;23.13;21.63;;;;;;;;;;4984967;28;20061;-47
2021/10/20 00:22:09;;;;;;;19.00;18.02;;;;;;;;;;4977934;28;20043;-47
2021/10/20 00:24:36;;;;;;;21.02;20.33;;;;;;;;;;4990702;28;20067;-47
2021/10/20 00:27:03;;;;;;;21.45;20.33;;;;;;;;;;4981760;28;20391;-49
2021/10/20 00:29:29;;;;;;;18.45;17.83;;;;;;;;;;4980702;28;20511;-46
2021/10/20 00:31:56;;;;;;;20.15;19.25;;;;;;;;;;4985904;28;20049;-46
2021/10/20 00:34:23;;;;;;;19.30;18.55;;;;;;;;;;4982965;28;20038;-48
2021/10/20 00:36:50;;;;;;;19.98;19.08;;;;;;;;;;4986538;28;20035;-47
2021/10/20 00:39:16;;;;;;;20.60;19.67;;;;;;;;;;4978305;28;20053;-47
2021/10/20 00:41:43;;;;;;;20.95;19.95;;;;;;;;;;4991828;28;20057;-46
2021/10/20 00:44:10;;;;;;;21.00;20.33;;;;;;;;;;4990767;28;20055;-46
2021/10/20 00:46:37;;;;;;;22.00;20.98;;;;;;;;;;4974926;28;20388;-47
2021/10/20 00:49:04;;;;;;;21.30;20.38;;;;;;;;;;4985238;28;20086;-49
2021/10/20 00:51:30;;;;;;;21.40;20.38;;;;;;;;;;4980170;28;20038;-47
2021/10/20 00:53:57;;;;;;;21.13;20.33;;;;;;;;;;4978848;28;20049;-46
2021/10/20 00:56:25;;;;;;;21.05;19.63;;;;;;;;;;4985401;28;20157;-47
2021/10/20 00:58:52;;;;;;;23.42;22.38;;;;;;;;;;4972492;28;20065;-50
2021/10/20 01:01:20;;;;;;;22.35;21.55;;;;;;;;;;4992467;28;20034;-50
2021/10/20 01:03:47;;;;;;;22.10;21.23;;;;;;;;;;4991162;28;20053;-48
2021/10/20 01:06:14;;;;;;;21.23;20.23;;;;;;;;;;4991028;28;20045;-51
2021/10/20 01:08:40;;;;;;;20.70;19.90;;;;;;;;;;4990397;28;20537;-51
2021/10/20 01:11:07;;;;;;;22.73;21.73;;;;;;;;;;4990310;28;20037;-47
2021/10/20 01:13:34;;;;;;;22.10;21.30;;;;;;;;;;4987690;28;20060;-48
2021/10/20 01:16:01;;;;;;;24.17;23.17;;;;;;;;;;4981562;28;20035;-48
2021/10/20 01:18:29;;;;;;;23.02;21.95;;;;;;;;;;4985753;28;20092;-48
2021/10/20 01:20:59;;;;;;;19.23;18.52;;;;;;;;;;4984463;28;20491;-47
2021/10/20 01:23:27;;;;;;;22.90;21.90;;;;;;;;;;4989319;28;20030;-48
2021/10/20 01:25:55;;;;;;;18.90;18.38;;;;;;;;;;4990775;28;20085;-52
2021/10/20 01:28:22;;;;;;;21.58;20.67;;;;;;;;;;4990316;28;20422;-48
2021/10/20 01:30:49;;;;;;;23.52;22.52;;;;;;;;;;4990902;28;20655;-46
2021/10/20 01:33:15;;;;;;;22.85;21.77;;;;;;;;;;4988732;28;21007;-48
2021/10/20 01:35:42;;;;;;;24.38;23.13;;;;;;;;;;4988033;28;20538;-49
2021/10/20 01:38:09;;;;;;;23.98;22.55;;;;;;;;;;4988545;28;20382;-48
2021/10/20 01:40:36;;;;;;;19.60;18.77;;;;;;;;;;4987821;28;20142;-47
2021/10/20 01:43:02;;;;;;;21.42;20.38;;;;;;;;;;4990090;28;20380;-47
2021/10/20 01:45:29;;;;;;;20.20;19.08;;;;;;;;;;4984670;28;20039;-46
2021/10/20 01:47:56;;;;;;;20.48;19.77;;;;;;;;;;4980716;28;20070;-47
2021/10/20 01:50:23;;;;;;;20.70;19.67;;;;;;;;;;4977566;28;20093;-46
2021/10/20 01:52:50;;;;;;;21.25;20.38;;;;;;;;;;4984250;28;20046;-47
2021/10/20 01:55:17;;;;;;;24.10;23.13;;;;;;;;;;4989246;28;20061;-49
2021/10/20 01:57:44;;;;;;;23.13;22.23;;;;;;;;;;4983831;28;20538;-47
2021/10/20 02:00:11;;;;;;;21.05;19.98;;;;;;;;;;4989516;28;20034;-49
2021/10/20 02:02:41;;;;;;;23.42;22.40;;;;;;;;;;4977212;28;20039;-48
2021/10/20 02:05:09;;;;;;;23.13;22.27;;;;;;;;;;4989736;28;20075;-50
2021/10/20 02:07:36;;;;;;;24.58;23.25;;;;;;;;;;4989555;28;20538;-47
2021/10/20 02:10:05;;;;;;;24.38;23.25;;;;;;;;;;4990550;28;20054;-49
2021/10/20 02:12:31;;;;;;;22.63;21.48;;;;;;;;;;4988838;28;20046;-49
2021/10/20 02:14:58;;;;;;;22.65;21.55;;;;;;;;;;4974296;28;20603;-48
2021/10/20 02:17:25;;;;;;;21.02;20.20;;;;;;;;;;4987832;28;20038;-48
2021/10/20 02:19:51;;;;;;;23.48;22.38;;;;;;;;;;4989211;28;20046;-49
2021/10/20 02:22:18;;;;;;;23.30;22.23;;;;;;;;;;4985621;28;20035;-49
2021/10/20 02:24:45;;;;;;;21.90;21.10;;;;;;;;;;4984186;28;20050;-50
2021/10/20 02:27:12;;;;;;;19.95;19.17;;;;;;;;;;4981331;28;20054;-50
2021/10/20 02:29:39;;;;;;;19.75;18.88;;;;;;;;;;4984018;28;20125;-49
2021/10/20 02:32:07;;;;;;;21.20;20.38;;;;;;;;;;4975747;28;20150;-47
2021/10/20 02:34:34;;;;;;;23.45;22.52;;;;;;;;;;4989296;28;20051;-47
2021/10/20 02:37:01;;;;;;;19.73;19.13;;;;;;;;;;4984347;28;20427;-48
2021/10/20 02:39:28;;;;;;;22.15;21.42;;;;;;;;;;4972500;28;20125;-48
2021/10/20 02:41:55;;;;;;;24.75;23.60;;;;;;;;;;4982273;28;20046;-47
2021/10/20 02:44:21;;;;;;;22.17;21.38;;;;;;;;;;4978514;28;20093;-48
2021/10/20 02:46:49;;;;;;;22.55;21.67;;;;;;;;;;4977147;28;20098;-50
2021/10/20 02:49:15;;;;;;;21.98;21.08;;;;;;;;;;4983357;28;20050;-51
2021/10/20 02:51:42;;;;;;;22.15;21.35;;;;;;;;;;4988906;28;20078;-50
2021/10/20 02:54:09;;;;;;;21.60;20.75;;;;;;;;;;4986573;28;20118;-48
2021/10/20 02:56:36;;;;;;;20.00;19.30;;;;;;;;;;4987478;28;20042;-49
2021/10/20 02:59:03;;;;;;;20.40;19.63;;;;;;;;;;4989782;28;20655;-46
2021/10/20 03:01:29;;;;;;;23.38;22.30;;;;;;;;;;4987723;28;20086;-46
2021/10/20 03:03:57;;;;;;;21.67;20.65;;;;;;;;;;4987100;28;20494;-47
2021/10/20 03:06:23;;;;;;;22.40;21.38;;;;;;;;;;4989568;28;20105;-49
2021/10/20 03:08:50;;;;;;;21.55;20.38;;;;;;;;;;4989686;28;20038;-48
2021/10/20 03:11:17;;;;;;;23.33;22.33;;;;;;;;;;4987871;28;20136;-50
2021/10/20 03:13:44;;;;;;;24.58;23.40;;;;;;;;;;4985955;28;20042;-47
2021/10/20 03:16:11;;;;;;;22.02;21.13;;;;;;;;;;4972746;28;20035;-47
2021/10/20 03:18:37;;;;;;;24.30;23.13;;;;;;;;;;4984707;28;20100;-51
2021/10/20 03:21:04;;;;;;;22.08;21.00;;;;;;;;;;4985982;28;20041;-49
2021/10/20 03:23:31;;;;;;;21.27;20.55;;;;;;;;;;4988724;28;20037;-50
2021/10/20 03:25:58;;;;;;;22.92;21.92;;;;;;;;;;4988536;28;20423;-51
2021/10/20 03:28:24;;;;;;;23.45;22.42;;;;;;;;;;4978775;28;20030;-48
2021/10/20 03:30:51;;;;;;;21.70;20.67;;;;;;;;;;4994352;28;20046;-47
2021/10/20 03:33:18;;;;;;;24.13;22.83;;;;;;;;;;4992362;28;20039;-47
2021/10/20 03:35:45;;;;;;;24.33;23.45;;;;;;;;;;4979565;28;20085;-48
2021/10/20 03:38:11;;;;;;;23.80;22.58;;;;;;;;;;4986240;28;20162;-48
2021/10/20 03:40:38;;;;;;;22.55;21.65;;;;;;;;;;4990159;28;20165;-48
2021/10/20 03:43:08;;;;;;;23.67;22.63;;;;;;;;;;4978899;28;20130;-48
2021/10/20 03:45:35;;;;;;;24.42;23.25;;;;;;;;;;4987301;28;20038;-50
2021/10/20 03:48:02;;;;;;;21.73;20.75;;;;;;;;;;4975936;28;20043;-49
2021/10/20 03:50:29;;;;;;;25.48;24.30;;;;;;;;;;4985833;28;20047;-48
2021/10/20 03:52:56;;;;;;;21.45;20.55;;;;;;;;;;4986541;28;20042;-50
2021/10/20 03:55:23;;;;;;;20.95;19.92;;;;;;;;;;4993702;28;20093;-49
2021/10/20 03:57:50;;;;;;;22.45;21.42;;;;;;;;;;4990550;28;20502;-48
2021/10/20 04:00:17;;;;;;;23.15;22.25;;;;;;;;;;4992350;28;20391;-49
2021/10/20 04:02:45;;;;;;;24.80;23.50;;;;;;;;;;4984736;28;20129;-47
2021/10/20 04:05:12;;;;;;;24.25;23.20;;;;;;;;;;4990146;28;20038;-52
2021/10/20 04:07:40;;;;;;;44.95;41.08;;;;;;;;;;4988761;28;20043;-50
2021/10/20 04:10:07;;;;;;;35.38;33.13;;;;;;;;;;4990444;28;20046;-51
2021/10/20 04:12:34;;;;;;;31.35;29.27;;;;;;;;;;4991335;28;20089;-47
2021/10/20 04:15:01;;;;;;;27.13;25.80;;;;;;;;;;4983718;28;20122;-47
2021/10/20 04:17:28;;;;;;;28.70;27.27;;;;;;;;;;4983671;28;20049;-50
2021/10/20 04:19:55;;;;;;;24.13;22.88;;;;;;;;;;4991396;28;20034;-48
2021/10/20 04:22:21;;;;;;;24.13;23.00;;;;;;;;;;4987970;28;20035;-48
2021/10/20 04:24:48;;;;;;;26.92;25.45;;;;;;;;;;4977735;28;20092;-47
2021/10/20 04:27:15;;;;;;;22.20;21.35;;;;;;;;;;4989528;28;20149;-46
2021/10/20 04:29:42;;;;;;;29.73;27.73;;;;;;;;;;4990465;28;20042;-49
2021/10/20 04:32:08;;;;;;;46.42;39.45;;;;;;;;;;4976117;28;20053;-47
2021/10/20 04:34:35;;;;;;;28.40;26.38;;;;;;;;;;4990017;28;20049;-47
2021/10/20 04:37:02;;;;;;;26.83;25.58;;;;;;;;;;4990952;28;20042;-49
2021/10/20 04:39:29;;;;;;;27.33;26.02;;;;;;;;;;4987697;28;20035;-46
2021/10/20 04:41:55;;;;;;;23.58;22.35;;;;;;;;;;4989381;28;20045;-47
2021/10/20 04:44:22;;;;;;;31.25;28.88;;;;;;;;;;4974557;28;20074;-48
2021/10/20 04:46:49;;;;;;;28.92;27.02;;;;;;;;;;4985528;28;20039;-47
2021/10/20 04:49:16;;;;;;;26.95;25.55;;;;;;;;;;4982680;28;20473;-49
2021/10/20 04:51:42;;;;;;;27.27;26.10;;;;;;;;;;4990466;28;20034;-46
2021/10/20 04:54:09;;;;;;;24.27;22.85;;;;;;;;;;4989845;28;20042;-47
2021/10/20 04:56:36;;;;;;;23.67;22.63;;;;;;;;;;4984103;28;20046;-49
2021/10/20 04:59:03;;;;;;;23.52;22.48;;;;;;;;;;4986744;28;20035;-49
2021/10/20 05:01:29;;;;;;;21.10;20.40;;;;;;;;;;4987515;28;20057;-46
2021/10/20 05:03:57;;;;;;;22.73;21.92;;;;;;;;;;4991928;28;20072;-48
2021/10/20 05:06:23;;;;;;;20.25;19.63;;;;;;;;;;4990733;28;20673;-50
2021/10/20 05:08:50;;;;;;;23.63;22.73;;;;;;;;;;4990315;28;20061;-49
2021/10/20 05:11:17;;;;;;;22.70;21.98;;;;;;;;;;4986877;28;20118;-50
2021/10/20 05:13:44;;;;;;;21.42;19.85;;;;;;;;;;4989640;28;20047;-47
2021/10/20 05:16:10;;;;;;;22.52;21.52;;;;;;;;;;4990911;28;20470;-54
2021/10/20 05:18:37;;;;;;;24.33;22.90;;;;;;;;;;4987085;28;20057;-52
2021/10/20 05:21:04;;;;;;;23.88;22.65;;;;;;;;;;4994162;28;20126;-53
2021/10/20 05:23:31;;;;;;;21.33;20.35;;;;;;;;;;4990192;28;20042;-52
2021/10/20 05:25:57;;;;;;;24.58;23.55;;;;;;;;;;4990449;28;20050;-52
2021/10/20 05:28:24;;;;;;;24.83;23.52;;;;;;;;;;4988397;28;20050;-52
2021/10/20 05:30:51;;;;;;;23.80;22.80;;;;;;;;;;4988744;28;20125;-52
2021/10/20 05:33:18;;;;;;;22.67;21.65;;;;;;;;;;4988595;28;20122;-52
2021/10/20 05:35:44;;;;;;;24.35;23.10;;;;;;;;;;4990714;28;20394;-52
2021/10/20 05:38:11;;;;;;;23.25;22.25;;;;;;;;;;4987753;28;20038;-51
2021/10/20 05:40:38;;;;;;;25.05;23.67;;;;;;;;;;4990970;28;20038;-52
2021/10/20 05:43:05;;;;;;;28.08;26.42;;;;;;;;;;4989801;28;20049;-51
2021/10/20 05:45:31;;;;;;;26.10;24.55;;;;;;;;;;4987339;28;20061;-52
2021/10/20 05:47:58;;;;;;;23.40;22.13;;;;;;;;;;4987250;28;20050;-52
2021/10/20 05:50:25;;;;;;;25.35;24.23;;;;;;;;;;4988691;28;20043;-52
2021/10/20 05:52:52;;;;;;;26.27;24.70;;;;;;;;;;4987278;28;20467;-53
2021/10/20 05:55:18;;;;;;;25.83;24.45;;;;;;;;;;5016921;28;20047;-53
2021/10/20 05:57:45;;;;;;;29.23;27.30;;;;;;;;;;4986827;28;20391;-51
2021/10/20 06:00:12;;;;;;;28.48;26.90;;;;;;;;;;4989292;28;20035;-53
2021/10/20 06:02:39;;;;;;;27.42;25.90;;;;;;;;;;4989629;28;20097;-53
2021/10/20 06:05:06;;;;;;;38.90;35.20;;;;;;;;;;4990493;28;20107;-51
2021/10/20 06:07:43;;;;;;;28.27;26.33;;;;;;;;;;4983791;28;20039;-50
2021/10/20 06:10:11;;;;;;;27.80;26.38;;;;;;;;;;4977889;28;20104;-52
2021/10/20 06:12:38;;;;;;;27.25;25.73;;;;;;;;;;4990348;28;20786;-52
2021/10/20 06:15:09;;;;;;;27.98;26.17;;;;;;;;;;4987452;28;20084;-52
2021/10/20 06:17:56;;;;;;;26.33;24.63;;;;;;;;;;4976797;28;20042;-52
2021/10/20 06:20:23;;;;;;;24.27;22.88;;;;;;;;;;4977423;28;20047;-52
2021/10/20 06:22:50;;;;;;;24.10;22.70;;;;;;;;;;4982105;28;20046;-52
2021/10/20 06:25:16;;;;;;;25.85;24.65;;;;;;;;;;4983028;28;20042;-52
2021/10/20 06:27:43;;;;;;;29.10;27.23;;;;;;;;;;4984811;28;20097;-53
2021/10/20 06:30:10;;;;;;;26.00;24.17;;;;;;;;;;4989901;28;20042;-53
2021/10/20 06:32:39;;;;;;;24.77;23.63;;;;;;;;;;4977021;28;20380;-53
2021/10/20 06:35:06;;;;;;;22.60;21.40;;;;;;;;;;5015308;28;20034;-52
2021/10/20 06:37:33;;;;;;;25.90;24.50;;;;;;;;;;4973071;28;20042;-54
2021/10/20 06:40:01;;;;;;;28.92;26.77;;;;;;;;;;4989979;28;20043;-54
2021/10/20 06:42:28;;;;;;;33.22;30.42;;;;;;;;;;4988406;28;20057;-54
2021/10/20 06:44:56;;;;;;;35.92;33.17;;;;;;;;;;4987441;28;20058;-54
2021/10/20 06:47:25;;;;;;;56.50;50.60;;;;;;;;;;4986492;28;20038;-54
2021/10/20 06:49:52;;;;;;;79.15;59.70;;;;;;;;;;4972963;28;20047;-54
2021/10/20 06:52:19;;;;;;;55.97;50.45;;;;;;;;;;4990383;28;20042;-54
2021/10/20 06:54:45;;;;;;;45.35;41.20;;;;;;;;;;4985384;28;20498;-55
2021/10/20 06:57:12;;;;;;;35.83;33.03;;;;;;;;;;4993163;28;20132;-54
2021/10/20 06:59:41;;;;;;;36.20;33.03;;;;;;;;;;4987444;28;20050;-53
2021/10/20 07:02:07;;;;;;;27.83;26.10;;;;;;;;;;4979918;28;20535;-54
2021/10/20 07:04:34;;;;;;;35.22;32.08;;;;;;;;;;4982272;28;20475;-54
2021/10/20 07:07:01;;;;;;;29.90;27.58;;;;;;;;;;4984710;28;20042;-55
2021/10/20 07:09:29;;;;;;;30.95;28.90;;;;;;;;;;4980380;28;20034;-55
2021/10/20 07:11:58;;;;;;;28.48;26.40;;;;;;;;;;4992880;28;20101;-54
2021/10/20 07:14:25;;;;;;;30.17;27.40;;;;;;;;;;4993042;28;20054;-55
2021/10/20 07:16:51;;;;;;;24.52;22.80;;;;;;;;;;4991712;28;20502;-54
2021/10/20 07:19:18;;;;;;;31.65;29.40;;;;;;;;;;4989449;28;20039;-55
2021/10/20 07:21:45;;;;;;;22.38;21.58;;;;;;;;;;4993623;28;20094;-55
2021/10/20 07:24:12;;;;;;;22.83;21.73;;;;;;;;;;4988260;28;20072;-55
2021/10/20 07:26:38;;;;;;;21.38;20.38;;;;;;;;;;4984518;28;20062;-54
2021/10/20 07:29:05;;;;;;;26.98;25.10;;;;;;;;;;4994047;28;20046;-55
2021/10/20 07:31:32;;;;;;;23.63;22.40;;;;;;;;;;4993054;28;20052;-55
2021/10/20 07:33:59;;;;;;;18.73;17.65;;;;;;;;;;4992386;28;20105;-55
2021/10/20 07:36:27;;;;;;;18.83;17.77;;;;;;;;;;4984006;28;20043;-55
2021/10/20 07:38:54;;;;;;;15.48;15.07;;;;;;;;;;4981187;28;20391;-55
2021/10/20 07:41:21;;;;;;;10.10;9.63;;;;;;;;;;4992793;28;20042;-54
2021/10/20 07:43:48;;;;;;;14.60;14.05;;;;;;;;;;4988474;28;20045;-55
2021/10/20 07:46:15;;;;;;;15.98;15.30;;;;;;;;;;4990597;28;20149;-54
2021/10/20 07:48:41;;;;;;;16.10;15.20;;;;;;;;;;4993774;28;20141;-55
2021/10/20 07:51:08;;;;;;;18.52;17.73;;;;;;;;;;4991551;28;20035;-54
2021/10/20 07:53:35;;;;;;;34.75;31.38;;;;;;;;;;4991465;28;20530;-54
2021/10/20 07:56:02;;;;;;;27.13;23.55;;;;;;;;;;4988246;28;20084;-54
2021/10/20 07:58:28;;;;;;;20.30;19.00;;;;;;;;;;4976537;28;20035;-54
2021/10/20 08:00:55;;;;;;;19.05;18.10;;;;;;;;;;4986609;28;20120;-55
2021/10/20 08:03:22;;;;;;;17.10;16.30;;;;;;;;;;4983507;28;20061;-54
2021/10/20 08:05:49;;;;;;;17.13;16.02;;;;;;;;;;4992742;28;20042;-55
2021/10/20 08:08:16;;;;;;;11.05;10.70;;;;;;;;;;4986027;28;20039;-55
2021/10/20 08:10:43;;;;;;;11.73;10.90;;;;;;;;;;4976330;28;20046;-55
2021/10/20 08:13:10;;;;;;;6.82;6.60;;;;;;;;;;4992406;28;20415;-55
2021/10/20 08:15:39;;;;;;;5.47;5.28;;;;;;;;;;4990623;28;20050;-54
2021/10/20 08:18:06;;;;;;;8.93;8.70;;;;;;;;;;4990665;28;20046;-55
2021/10/20 08:20:34;;;;;;;12.13;11.93;;;;;;;;;;4986356;28;20046;-54
2021/10/20 08:23:02;;;;;;;6.70;6.50;;;;;;;;;;4977443;28;20482;-54
2021/10/20 08:25:30;;;;;;;13.10;12.75;;;;;;;;;;4992269;28;20558;-55
2021/10/20 08:27:57;;;;;;;9.15;8.52;;;;;;;;;;4987274;28;20038;-55
2021/10/20 08:30:24;;;;;;;5.38;5.00;;;;;;;;;;4991624;28;20066;-55
2021/10/20 08:32:53;;;;;;;4.88;4.68;;;;;;;;;;4985631;28;20105;-55
2021/10/20 08:35:19;;;;;;;5.90;5.65;;;;;;;;;;4978068;28;20073;-53
2021/10/20 08:37:48;;;;;;;5.72;5.40;;;;;;;;;;4992093;28;20509;-55
2021/10/20 08:40:14;;;;;;;8.35;7.82;;;;;;;;;;4990867;28;20498;-54
2021/10/20 08:42:42;;;;;;;9.05;8.50;;;;;;;;;;4990976;28;20066;-54
2021/10/20 08:45:09;;;;;;;10.05;9.10;;;;;;;;;;4988340;28;20125;-54
2021/10/20 08:47:36;;;;;;;9.32;7.80;;;;;;;;;;4980030;28;20039;-54
2021/10/20 08:50:04;;;;;;;11.20;7.97;;;;;;;;;;4991086;28;20046;-54
2021/10/20 08:52:31;;;;;;;7.82;7.18;;;;;;;;;;4989240;28;20057;-53
2021/10/20 08:54:59;;;;;;;8.65;7.75;;;;;;;;;;4990500;28;20047;-55
2021/10/20 08:57:26;;;;;;;8.20;7.47;;;;;;;;;;4992567;28;20038;-54
2021/10/20 08:59:53;;;;;;;18.23;12.35;;;;;;;;;;4989796;28;20466;-54
2021/10/20 09:02:20;;;;;;;22.65;15.45;;;;;;;;;;4988266;28;20447;-54
2021/10/20 09:04:54;;;;;;;20.60;15.05;;;;;;;;;;4989059;28;20034;-54
2021/10/20 09:07:21;;;;;;;;;;;;;;;;;;4991770;28;20050;-54
2021/10/20 09:09:52;;;;;;;11.75;9.77;;;;;;;;;;4991833;28;19928;-53
2021/10/20 09:12:26;;;;;;;15.38;11.02;;;;;;;;;;4989516;28;20498;-54
2021/10/20 09:14:58;;;;;;;14.23;12.82;;;;;;;;;;4982559;28;20050;-54
2021/10/20 09:17:40;;;;;;;12.40;10.40;;;;;;;;;;4983143;28;20655;-54
2021/10/20 09:20:17;;;;;;;14.02;10.00;;;;;;;;;;4984179;28;20069;-54
2021/10/20 09:22:56;;;;;;;10.18;9.15;;;;;;;;;;4991623;28;20034;-53
2021/10/20 09:25:31;;;;;;;9.57;8.38;;;;;;;;;;4984654;28;20121;-53
2021/10/20 09:28:01;;;;;;;7.93;7.07;;;;;;;;;;4985676;28;20055;-53
2021/10/20 09:30:29;;;;;;;10.18;9.10;;;;;;;;;;4984114;28;20474;-52
2021/10/20 09:32:58;;;;;;;11.48;10.45;;;;;;;;;;4985481;28;20042;-53
2021/10/20 09:35:28;;;;;;;9.57;7.95;;;;;;;;;;4976678;28;20120;-52
2021/10/20 09:37:59;;;;;;;12.27;8.80;;;;;;;;;;4990273;28;20053;-53
2021/10/20 09:40:43;;;;;;;11.25;9.68;;;;;;;;;;5106249;27;20421;-54
2021/10/20 09:43:11;;;;;;;18.70;12.10;;;;;;;;;;5071526;28;20039;-52
2021/10/20 09:45:39;;;;;;;10.43;8.73;;;;;;;;;;5079269;28;20028;-54
2021/10/20 09:48:11;;;;;;;19.42;11.98;;;;;;;;;;5081988;28;20052;-52
2021/10/20 09:50:52;;;;;;;16.10;12.32;;;;;;;;;;5083961;28;20118;-54
2021/10/20 09:53:18;;;;;;;14.98;12.82;;;;;;;;;;5085157;28;20041;-54
2021/10/20 09:55:45;;;;;;;16.40;11.27;;;;;;;;;;5084972;28;20052;-53
2021/10/20 09:58:13;;;;;;;15.25;10.93;;;;;;;;;;5086176;28;20086;-54
2021/10/20 10:00:43;;;;;;;17.52;13.38;;;;;;;;;;5085996;28;20433;-54
2021/10/20 10:03:11;;;;;;;16.42;12.57;;;;;;;;;;5087270;28;20139;-53
2021/10/20 10:05:38;;;;;;;2.58;2.40;;;;;;;;;;5082555;28;20538;-53
2021/10/20 10:08:05;;;;;;;3.08;2.97;;;;;;;;;;5085602;28;20064;-54
2021/10/20 10:10:34;;;;;;;2.00;1.90;;;;;;;;;;5086573;28;20047;-53
2021/10/20 10:13:09;;;;;;;1.70;1.70;;;;;;;;;;5086147;28;20048;-53
2021/10/20 10:15:37;;;;;;;3.20;2.90;;;;;;;;;;5085292;28;20047;-53
2021/10/20 10:18:06;;;;;;;9.13;5.22;;;;;;;;;;5083170;28;20672;-53
2021/10/20 10:20:37;;;;;;;1.90;1.80;;;;;;;;;;5087364;28;20044;-53
2021/10/20 10:23:07;;;;;;;1.85;1.75;;;;;;;;;;5085786;28;20037;-53
2021/10/20 10:25:37;;;;;;;2.25;1.65;;;;;;;;;;5088888;28;20089;-54
2021/10/20 10:28:05;;;;;;;1.33;1.20;;;;;;;;;;5085056;28;20387;-53
2021/10/20 10:30:44;;;;;;;1.52;1.50;;;;;;;;;;5081053;28;20089;-54
2021/10/20 10:33:19;;;;;;;1.20;1.10;;;;;;;;;;5085545;28;20042;-52
2021/10/20 10:36:00;;;;;;;1.30;1.20;;;;;;;;;;5080496;28;20508;-53
2021/10/20 10:38:41;;;;;;;1.17;1.00;;;;;;;;;;5085926;28;20045;-52
2021/10/20 10:41:23;;;;;;;2.38;1.20;;;;;;;;;;5083841;28;20029;-53
2021/10/20 10:44:11;;;;;;;2.75;1.10;;;;;;;;;;5078544;28;20400;-52
2021/10/20 10:46:45;;;;;;;0.90;0.90;;;;;;;;;;5082689;28;20660;-53
2021/10/20 10:49:24;;;;;;;1.73;0.93;;;;;;;;;;5084657;28;20043;-53
2021/10/20 10:52:21;;;;;;;1.00;1.00;;;;;;;;;;5055155;28;20049;-53
2021/10/20 10:54:56;;;;;;;1.00;1.00;;;;;;;;;;5081521;28;20060;-53
2021/10/20 10:57:23;;;;;;;1.20;1.10;;;;;;;;;;5070201;28;20049;-52
2021/10/20 11:00:10;;;;;;;2.50;1.10;;;;;;;;;;5062555;28;20119;-54
2021/10/20 11:02:37;;;;;;;1.17;1.17;;;;;;;;;;5068446;28;20044;-53
2021/10/20 11:05:05;;;;;;;1.17;1.17;;;;;;;;;;5063367;28;20439;-54
2021/10/20 11:07:32;;;;;;;1.30;1.20;;;;;;;;;;5071881;28;20068;-54
2021/10/20 11:09:59;;;;;;;1.17;1.17;;;;;;;;;;5067368;28;20511;-54
2021/10/20 11:12:26;;;;;;;1.20;1.20;;;;;;;;;;5061025;28;20093;-54
2021/10/20 11:14:55;;;;;;;1.00;1.00;;;;;;;;;;5070599;28;20624;-53
2021/10/20 11:17:22;;;;;;;1.13;1.13;;;;;;;;;;5064916;28;20131;-53
2021/10/20 11:19:49;;;;;;;1.17;1.10;;;;;;;;;;5066552;28;20591;-54
2021/10/20 11:22:19;;;;;;;3.08;1.35;;;;;;;;;;5070239;28;20048;-54
2021/10/20 11:24:47;;;;;;;1.40;1.00;;;;;;;;;;5061940;28;20045;-53
2021/10/20 11:27:15;;;;;;;1.20;1.15;;;;;;;;;;5068643;28;20029;-54
2021/10/20 11:29:47;;;;;;;2.25;1.40;;;;;;;;;;5066253;28;20052;-53
2021/10/20 11:32:15;;;;;;;2.25;1.15;;;;;;;;;;5059027;28;20045;-53
2021/10/20 11:34:43;;;;;;;1.10;1.10;;;;;;;;;;5065467;28;20710;-52
2021/10/20 11:37:10;;;;;;;1.10;1.00;;;;;;;;;;5069092;28;20033;-51
2021/10/20 11:39:38;;;;;;;3.33;1.10;;;;;;;;;;5068579;28;20083;-54
2021/10/20 11:42:09;;;;;;;2.25;1.45;;;;;;;;;;5063953;28;20039;-53
2021/10/20 11:44:37;;;;;;;1.02;0.90;;;;;;;;;;5062086;28;20076;-53
2021/10/20 11:47:05;;;;;;;1.08;1.08;;;;;;;;;;5069765;28;20481;-53
2021/10/20 11:49:33;;;;;;;2.28;0.95;;;;;;;;;;5052292;28;20033;-54
2021/10/20 11:52:02;;;;;;;0.77;0.77;;;;;;;;;;5070085;28;20102;-53
2021/10/20 11:54:29;;;;;;;2.70;1.15;;;;;;;;;;5067152;28;20127;-55
2021/10/20 11:56:56;;;;;;;0.90;0.90;;;;;;;;;;5064223;28;20048;-54
2021/10/20 11:59:24;;;;;;;3.13;0.80;;;;;;;;;;5067632;28;20123;-55
2021/10/20 12:01:51;;;;;;;2.30;0.80;;;;;;;;;;5068357;28;20064;-55
2021/10/20 12:04:19;;;;;;;1.17;0.80;;;;;;;;;;5060811;28;20409;-54
2021/10/20 12:06:47;;;;;;;2.45;1.00;;;;;;;;;;5060949;28;20031;-53
2021/10/20 12:09:15;;;;;;;1.20;0.80;;;;;;;;;;5070014;28;20072;-54
2021/10/20 12:11:42;;;;;;;1.85;0.98;;;;;;;;;;5065185;28;20169;-53
2021/10/20 12:14:13;;;;;;;1.10;0.80;;;;;;;;;;5061882;28;20053;-53
2021/10/20 12:16:40;;;;;;;0.80;0.80;;;;;;;;;;5061563;28;20546;-54
2021/10/20 12:19:08;;;;;;;0.80;0.80;;;;;;;;;;5053383;28;20055;-53
2021/10/20 12:21:36;;;;;;;0.80;0.80;;;;;;;;;;5069037;28;20596;-54
2021/10/20 12:24:03;;;;;;;0.70;0.70;;;;;;;;;;5071798;28;20043;-54
2021/10/20 12:26:31;;;;;;;1.23;0.80;;;;;;;;;;5075580;28;20040;-54
2021/10/20 12:29:03;;;;;;;1.73;0.90;;;;;;;;;;5064676;28;20036;-55
2021/10/20 12:31:30;;;;;;;1.25;0.90;;;;;;;;;;5067852;28;20491;-53
2021/10/20 12:33:57;;;;;;;0.77;0.70;;;;;;;;;;5069158;28;20036;-53
2021/10/20 12:36:26;;;;;;;0.93;0.70;;;;;;;;;;5069083;28;20384;-53
2021/10/20 12:38:53;;;;;;;0.68;0.68;;;;;;;;;;5067569;28;20033;-53
2021/10/20 12:41:21;;;;;;;2.15;1.55;;;;;;;;;;5056983;28;20033;-54
2021/10/20 12:43:50;;;;;;;0.70;0.70;;;;;;;;;;5069014;28;20119;-50
2021/10/20 12:46:29;;;;;;;1.30;0.70;;;;;;;;;;5053145;28;20036;-52
2021/10/20 12:48:56;;;;;;;1.05;0.80;;;;;;;;;;5068962;28;20071;-51
2021/10/20 12:51:25;;;;;;;3.15;0.80;;;;;;;;;;5067094;28;20488;-54
2021/10/20 12:53:57;;;;;;;1.38;1.10;;;;;;;;;;5063592;28;20392;-54
2021/10/20 12:56:26;;;;;;;1.85;0.88;;;;;;;;;;5063891;28;20045;-52
2021/10/20 12:59:05;;;;;;;0.70;0.70;;;;;;;;;;5065639;28;20497;-53
2021/10/20 13:01:32;;;;;;;0.70;0.70;;;;;;;;;;5065595;28;20045;-52
2021/10/20 13:04:00;;;;;;;0.70;0.70;;;;;;;;;;5065477;28;20044;-54
2021/10/20 13:06:26;;;;;;;0.70;0.70;;;;;;;;;;5061316;28;20346;-53
2021/10/20 13:08:53;;;;;;;0.90;0.90;;;;;;;;;;5067312;28;20497;-54
2021/10/20 13:11:21;;;;;;;1.00;0.90;;;;;;;;;;5066156;28;20032;-53
2021/10/20 13:13:47;;;;;;;1.33;1.33;;;;;;;;;;5055841;28;20047;-53
2021/10/20 13:16:14;;;;;;;0.77;0.77;;;;;;;;;;5067239;28;20042;-53
2021/10/20 13:18:41;;;;;;;1.77;0.70;;;;;;;;;;5069058;28;20381;-50
2021/10/20 13:21:08;;;;;;;0.90;0.90;;;;;;;;;;5069644;28;20040;-52
2021/10/20 13:23:36;;;;;;;0.80;0.80;;;;;;;;;;5067581;28;20036;-53
2021/10/20 13:26:03;;;;;;;2.95;0.80;;;;;;;;;;5069755;28;20036;-54
2021/10/20 13:28:31;;;;;;;0.90;0.90;;;;;;;;;;5066341;28;20049;-54
2021/10/20 13:30:58;;;;;;;0.80;0.80;;;;;;;;;;5063390;28;20040;-55
2021/10/20 13:33:25;;;;;;;0.70;0.70;;;;;;;;;;5059881;28;20040;-53
2021/10/20 13:35:52;;;;;;;0.70;0.70;;;;;;;;;;5060775;28;20032;-51
2021/10/20 13:38:22;;;;;;;0.90;0.90;;;;;;;;;;5059339;28;20035;-50
2021/10/20 13:40:50;;;;;;;2.47;2.20;;;;;;;;;;5065605;28;20036;-51
2021/10/20 13:43:17;;;;;;;1.10;0.88;;;;;;;;;;5059090;28;20048;-52
2021/10/20 13:45:45;;;;;;;0.90;0.90;;;;;;;;;;5069813;28;20052;-50
2021/10/20 13:48:12;;;;;;;2.65;0.80;;;;;;;;;;5066556;28;20048;-50
2021/10/20 13:50:39;;;;;;;1.92;0.98;;;;;;;;;;5060239;28;20044;-54
2021/10/20 13:53:06;;;;;;;1.13;1.13;;;;;;;;;;5062555;28;20037;-54
2021/10/20 13:55:33;;;;;;;1.45;0.95;;;;;;;;;;5056765;28;20044;-54
2021/10/20 13:58:00;;;;;;;0.80;0.80;;;;;;;;;;5069132;28;20424;-54
2021/10/20 14:00:27;;;;;;;0.80;0.80;;;;;;;;;;5067884;28;20056;-54
2021/10/20 14:02:54;;;;;;;2.25;1.10;;;;;;;;;;5050782;28;20051;-54
2021/10/20 14:05:21;;;;;;;1.08;0.98;;;;;;;;;;5069263;28;20064;-53
2021/10/20 14:07:48;;;;;;;0.90;0.90;;;;;;;;;;5065436;28;20129;-54
2021/10/20 14:10:18;;;;;;;1.38;0.90;;;;;;;;;;5069917;28;20098;-53
2021/10/20 14:12:45;;;;;;;0.88;0.80;;;;;;;;;;5064399;28;20040;-52
2021/10/20 14:15:12;;;;;;;0.80;0.80;;;;;;;;;;5064836;28;20036;-52
2021/10/20 14:17:38;;;;;;;0.90;0.90;;;;;;;;;;5060007;28;20037;-42
2021/10/20 14:20:06;;;;;;;0.80;0.80;;;;;;;;;;5057867;28;20071;-41
2021/10/20 14:22:33;;;;;;;0.80;0.80;;;;;;;;;;5069065;28;20109;-42
2021/10/20 14:25:00;;;;;;;3.22;3.03;;;;;;;;;;5067744;28;20041;-41
2021/10/20 14:27:27;;;;;;;1.60;1.17;;;;;;;;;;5072587;28;20045;-44
2021/10/20 14:29:54;;;;;;;1.15;0.70;;;;;;;;;;5065661;28;20050;-43